Terminal Aerodrome Forecast
Issued by NWS

Home | Current Version | Previous Version | Graphics & Text | Print | Product List | Glossary On
Versions: 1 2 3 4 5 6 7 8 9 10 11 12 13 14 15
000
FTUS45 KGGW 181728
TAFOLF
TAF
KOLF 181728Z 1818/1918 27011KT P6SM FEW200
     FM181930 28017G25KT P6SM FEW200
     FM182300 25011KT P6SM FEW190
     FM190200 11004KT P6SM BKN140 WS020/25025KT
     FM191100 21006KT P6SM FEW160=

USA.gov is the U.S. government's official web portal to all federal, state and local government web resources and services.